createdAt,value
2022-08-30T00:00:41.557Z,88.33
2022-08-30T00:05:45.715Z,88.34
2022-08-30T00:10:51.343Z,88.51
2022-08-30T00:15:54.721Z,88.56
2022-08-30T00:20:57.565Z,88.66
2022-08-30T00:26:00.845Z,88.47
2022-08-30T00:31:04.750Z,88.76
2022-08-30T00:36:07.613Z,88.94
2022-08-30T00:41:10.272Z,89.32
2022-08-30T00:46:13.053Z,89.70
2022-08-30T00:51:17.252Z,89.42
2022-08-30T00:56:20.144Z,89.74
2022-08-30T01:01:24.332Z,90.16
2022-08-30T01:06:32.510Z,90.15
2022-08-30T01:11:38.237Z,89.60
2022-08-30T01:16:44.260Z,89.95
2022-08-30T01:21:51.836Z,89.89
2022-08-30T01:26:54.841Z,89.70
2022-08-30T01:31:57.622Z,89.86
2022-08-30T01:37:00.377Z,89.99
2022-08-30T01:42:04.282Z,89.96
2022-08-30T01:47:06.949Z,89.92
2022-08-30T01:52:09.656Z,90.25
2022-08-30T01:57:16.251Z,90.45
2022-08-30T02:02:23.281Z,90.98
2022-08-30T02:07:26.764Z,90.87
2022-08-30T02:12:30.425Z,90.45
2022-08-30T02:17:33.456Z,91.15
2022-08-30T02:22:36.509Z,91.32
2022-08-30T02:27:39.364Z,92.46
2022-08-30T02:32:45.416Z,92.90
2022-08-30T02:37:48.220Z,93.47
2022-08-30T02:42:51.692Z,93.70
2022-08-30T02:47:56.644Z,93.37
2022-08-30T02:52:59.304Z,93.72
2022-08-30T02:58:02.733Z,93.99
2022-08-30T03:03:05.400Z,93.49
2022-08-30T03:08:08.969Z,92.52
2022-08-30T03:13:11.962Z,91.39
2022-08-30T03:18:15.245Z,89.95
2022-08-30T03:23:21.916Z,88.04
2022-08-30T03:28:25.544Z,85.90
2022-08-30T03:33:28.391Z,84.85
2022-08-30T03:38:31.483Z,84.17
2022-08-30T03:43:34.401Z,83.36
2022-08-30T03:48:37.242Z,83.04
2022-08-30T03:53:39.968Z,81.51
2022-08-30T03:58:42.720Z,81.34
2022-08-30T04:03:45.523Z,81.09
2022-08-30T04:08:48.417Z,80.20
2022-08-30T04:13:52.069Z,79.39
2022-08-30T04:18:54.815Z,79.05
2022-08-30T04:23:57.448Z,78.73
2022-08-30T04:29:00.860Z,77.93
2022-08-30T04:34:03.735Z,77.64
2022-08-30T04:39:06.993Z,76.19
2022-08-30T04:44:15.869Z,75.58
2022-08-30T04:49:23.095Z,74.93
2022-08-30T04:54:25.789Z,74.82
2022-08-30T04:59:29.061Z,75.10
2022-08-30T05:04:31.827Z,74.92
2022-08-30T05:09:34.642Z,74.32
2022-08-30T05:14:37.230Z,73.84
2022-08-30T05:19:40.652Z,73.69
2022-08-30T05:24:43.854Z,73.97
2022-08-30T05:29:47.027Z,73.11
2022-08-30T05:34:49.720Z,72.88
2022-08-30T05:39:54.104Z,71.74
2022-08-30T05:44:56.794Z,70.71
2022-08-30T05:50:00.453Z,70.11
2022-08-30T05:55:04.419Z,69.01
2022-08-30T06:00:14.720Z,68.65
2022-08-30T06:05:17.390Z,67.36
2022-08-30T06:10:20.168Z,66.64
2022-08-30T06:15:22.958Z,65.60
2022-08-30T06:20:25.724Z,64.63
2022-08-30T06:25:28.422Z,63.99
2022-08-30T06:35:58.505Z,62.64
2022-08-30T06:41:07.738Z,61.88
2022-08-30T06:46:14.300Z,60.84
2022-08-30T06:51:26.576Z,59.52
2022-08-30T06:56:31.162Z,59.36
2022-08-30T07:01:34.152Z,59.69
2022-08-30T07:06:36.908Z,59.75
2022-08-30T07:11:40.620Z,59.40
2022-08-30T07:16:44.604Z,58.55
2022-08-30T07:21:49.007Z,57.56
2022-08-30T07:26:52.609Z,56.70
2022-08-30T07:31:55.256Z,54.77
2022-08-30T07:36:57.965Z,54.81
2022-08-30T07:42:00.727Z,54.54
2022-08-30T07:47:04.444Z,52.99
2022-08-30T07:52:07.210Z,52.54
2022-08-30T07:57:10.223Z,51.58
2022-08-30T08:02:12.994Z,51.62
2022-08-30T08:07:15.861Z,51.69
2022-08-30T08:12:18.551Z,51.59
2022-08-30T08:17:21.254Z,49.41
2022-08-30T08:22:24.008Z,48.81
2022-08-30T08:27:26.835Z,47.82
2022-08-30T08:32:29.436Z,47.78
2022-08-30T08:37:32.141Z,46.99
2022-08-30T08:43:16.414Z,46.86
2022-08-30T08:49:00.063Z,45.77
2022-08-30T08:54:08.785Z,46.81
2022-08-30T08:59:12.689Z,46.17
2022-08-30T09:04:20.737Z,45.39
2022-08-30T09:09:49.697Z,45.82
2022-08-30T09:14:55.936Z,44.40
2022-08-30T09:20:00.196Z,43.87
2022-08-30T09:25:09.132Z,42.84
2022-08-30T09:30:18.153Z,43.28
2022-08-30T09:35:26.351Z,42.83
2022-08-30T09:40:41.679Z,42.99
2022-08-30T09:45:47.522Z,42.96
2022-08-30T09:51:08.505Z,42.75
2022-08-30T09:56:24.714Z,42.16
2022-08-30T10:01:37.094Z,41.67
2022-08-30T10:06:46.196Z,40.85
2022-08-30T10:12:03.748Z,40.31
2022-08-30T10:17:48.923Z,39.40
2022-08-30T10:23:00.342Z,39.86
2022-08-30T10:28:14.712Z,40.02
2022-08-30T10:33:25.514Z,38.47
2022-08-30T10:38:33.582Z,40.67
2022-08-30T10:44:04.521Z,40.79
2022-08-30T10:49:16.486Z,39.42
2022-08-30T10:54:40.971Z,38.55
2022-08-30T10:59:58.640Z,38.07
2022-08-30T11:05:26.620Z,36.60
2022-08-30T11:10:29.994Z,36.12
2022-08-30T11:15:37.889Z,35.63
2022-08-30T11:20:45.833Z,36.29
2022-08-30T11:25:57.876Z,36.01
2022-08-30T11:31:12.936Z,35.95
2022-08-30T11:36:46.151Z,36.18
2022-08-30T11:42:24.569Z,35.37
2022-08-30T11:47:42.319Z,34.68
2022-08-30T11:52:54.017Z,34.73
2022-08-30T11:58:06.955Z,34.07
2022-08-30T12:03:21.167Z,35.23
2022-08-30T12:08:36.332Z,34.66
2022-08-30T12:13:43.061Z,34.84
2022-08-30T12:18:51.724Z,35.29
2022-08-30T12:24:29.965Z,33.70
2022-08-30T12:29:32.641Z,33.07
2022-08-30T12:34:49.554Z,33.06
2022-08-30T12:40:07.538Z,34.25
2022-08-30T12:45:13.620Z,34.50
2022-08-30T12:50:20.528Z,34.74
2022-08-30T12:55:28.130Z,34.45
2022-08-30T13:00:39.788Z,33.62
2022-08-30T13:05:48.503Z,32.77
2022-08-30T13:11:11.281Z,33.90
2022-08-30T13:16:23.275Z,32.58
2022-08-30T13:21:32.338Z,30.44
2022-08-30T13:26:41.283Z,29.67
2022-08-30T13:31:44.172Z,30.39
2022-08-30T13:36:50.807Z,29.40
2022-08-30T13:41:54.238Z,29.50
2022-08-30T13:47:32.117Z,30.45
2022-08-30T13:52:23.059Z,30.84
2022-08-30T14:02:57.292Z,32.49
2022-08-30T14:08:02.923Z,33.64
2022-08-30T14:13:09.053Z,34.38
2022-08-30T14:18:15.853Z,34.58
2022-08-30T14:23:20.765Z,34.34
2022-08-30T14:28:23.603Z,34.15
2022-08-30T14:33:26.751Z,35.11
2022-08-30T14:38:29.417Z,35.71
2022-08-30T14:43:32.419Z,36.67
2022-08-30T14:48:37.158Z,37.12
2022-08-30T14:53:40.155Z,38.21
2022-08-30T14:58:43.804Z,39.35
2022-08-30T15:03:46.695Z,41.04
2022-08-30T15:08:49.824Z,42.12
2022-08-30T15:13:53.885Z,44.22
2022-08-30T15:18:58.354Z,44.58
2022-08-30T15:24:05.426Z,45.13
2022-08-30T15:29:09.156Z,46.22
2022-08-30T15:34:14.608Z,46.94
2022-08-30T15:39:17.823Z,46.88
2022-08-30T15:44:20.523Z,47.28
2022-08-30T15:49:24.132Z,48.01
2022-08-30T15:54:26.867Z,48.27
2022-08-30T15:59:32.584Z,48.76
2022-08-30T16:04:36.495Z,49.20
2022-08-30T16:09:40.680Z,49.40
2022-08-30T16:14:44.770Z,50.29
2022-08-30T16:19:47.555Z,50.49
2022-08-30T16:24:51.580Z,51.35
2022-08-30T16:29:54.675Z,52.31
2022-08-30T16:34:58.628Z,53.61
2022-08-30T16:40:01.559Z,53.96
2022-08-30T16:45:10.408Z,54.66
2022-08-30T16:50:16.790Z,54.91
2022-08-30T16:55:20.836Z,55.16
2022-08-30T17:00:24.322Z,55.50
2022-08-30T17:05:27.642Z,55.82
2022-08-30T17:10:33.232Z,56.13
2022-08-30T17:15:36.434Z,56.15
2022-08-30T17:20:44.442Z,57.10
2022-08-30T17:25:47.733Z,57.56
2022-08-30T17:30:51.039Z,58.26
2022-08-30T17:35:55.745Z,58.89
2022-08-30T17:41:06.790Z,59.26
2022-08-30T17:46:18.847Z,59.25
2022-08-30T17:51:21.577Z,59.38
2022-08-30T17:56:33.968Z,59.87
2022-08-30T18:01:38.989Z,59.73
2022-08-30T18:06:41.766Z,60.21
2022-08-30T18:11:45.773Z,60.87
2022-08-30T18:16:54.257Z,61.04
2022-08-30T18:21:58.741Z,61.17
2022-08-30T18:27:03.439Z,61.81
2022-08-30T18:32:06.618Z,62.01
2022-08-30T18:37:12.597Z,62.56
2022-08-30T18:42:15.805Z,62.87
2022-08-30T18:47:18.519Z,63.17
2022-08-30T18:52:28.188Z,63.55
2022-08-30T18:57:31.096Z,64.25
2022-08-30T19:02:35.133Z,64.47
2022-08-30T19:07:37.912Z,65.11
2022-08-30T19:12:42.311Z,65.72
2022-08-30T19:17:47.435Z,66.07
2022-08-30T19:23:09.269Z,66.24
2022-08-30T19:28:13.345Z,66.93
2022-08-30T19:33:17.481Z,67.60
2022-08-30T19:38:20.931Z,69.49
2022-08-30T19:43:24.728Z,69.34
2022-08-30T19:48:32.264Z,68.64
2022-08-30T19:53:36.532Z,68.66
2022-08-30T19:58:39.204Z,68.82
2022-08-30T20:03:42.006Z,69.08
2022-08-30T20:08:45.815Z,69.41
2022-08-30T20:13:48.703Z,69.21
2022-08-30T20:18:53.660Z,69.12
2022-08-30T20:23:56.818Z,68.94
2022-08-30T20:29:00.307Z,68.76
2022-08-30T20:34:04.379Z,69.67
2022-08-30T20:39:10.748Z,69.78
2022-08-30T20:44:20.052Z,70.52
2022-08-30T20:49:23.200Z,70.58
2022-08-30T20:54:27.676Z,70.79
2022-08-30T20:59:30.884Z,71.38
2022-08-30T21:04:34.067Z,71.55
2022-08-30T21:09:38.005Z,71.61
2022-08-30T21:14:40.703Z,71.55
2022-08-30T21:19:44.212Z,71.08
2022-08-30T21:24:47.065Z,70.62
2022-08-30T21:29:49.968Z,70.19
2022-08-30T21:35:11.187Z,70.06
2022-08-30T21:40:17.192Z,69.76
2022-08-30T21:45:20.279Z,69.67
2022-08-30T21:50:23.017Z,69.78
2022-08-30T21:55:25.658Z,69.82
2022-08-30T22:00:28.341Z,69.48
2022-08-30T22:05:30.979Z,69.35
2022-08-30T22:10:33.820Z,69.23
2022-08-30T22:15:36.636Z,69.69
2022-08-30T22:20:40.789Z,69.69
2022-08-30T22:25:44.281Z,69.78
2022-08-30T22:30:48.989Z,70.43
2022-08-30T22:35:51.713Z,70.55
2022-08-30T22:40:54.589Z,70.83
2022-08-30T22:45:58.091Z,71.45
2022-08-30T22:51:01.325Z,72.13
2022-08-30T22:56:11.504Z,72.56
2022-08-30T23:01:23.707Z,72.59
2022-08-30T23:06:27.629Z,73.38
2022-08-30T23:11:33.456Z,74.04
2022-08-30T23:16:36.681Z,74.60
2022-08-30T23:21:39.508Z,74.86
2022-08-30T23:27:02.994Z,75.45
2022-08-30T23:32:24.585Z,76.33
2022-08-30T23:37:45.566Z,76.96
2022-08-30T23:43:09.709Z,77.21
2022-08-30T23:48:31.242Z,77.30
2022-08-30T23:53:52.620Z,77.91
2022-08-30T23:59:14.355Z,78.25
